createdAt,value
2022-08-16T00:00:03.332Z,1.00
2022-08-16T00:00:57.812Z,1.10
2022-08-16T00:01:56.844Z,1.00
2022-08-16T00:02:56.798Z,1.00
2022-08-16T00:03:56.780Z,0.90
2022-08-16T00:04:59.740Z,1.10
2022-08-16T00:05:57.462Z,1.20
2022-08-16T00:06:56.754Z,1.10
2022-08-16T00:07:56.990Z,1.10
2022-08-16T00:08:56.708Z,0.90
2022-08-16T00:09:56.720Z,1.00
2022-08-16T00:10:56.724Z,1.10
2022-08-16T00:11:56.704Z,1.10
2022-08-16T00:12:56.665Z,0.90
2022-08-16T00:13:56.669Z,1.00
2022-08-16T00:14:57.147Z,1.10
2022-08-16T00:15:56.662Z,1.00
2022-08-16T00:17:01.099Z,1.00
2022-08-16T00:17:57.607Z,1.00
2022-08-16T00:18:56.592Z,0.90
2022-08-16T00:19:56.582Z,1.10
2022-08-16T00:20:56.577Z,1.10
2022-08-16T00:22:01.473Z,1.30
2022-08-16T00:22:57.535Z,1.00
2022-08-16T00:23:56.553Z,1.00
2022-08-16T00:24:56.535Z,1.00
2022-08-16T00:26:35.510Z,0.90
2022-08-16T00:26:57.509Z,1.00
2022-08-16T00:27:56.501Z,1.00
2022-08-16T00:28:56.467Z,1.00
2022-08-16T00:30:08.335Z,1.10
2022-08-16T00:30:59.120Z,1.00
2022-08-16T00:32:01.103Z,1.00
2022-08-16T00:32:57.447Z,1.10
2022-08-16T00:33:56.419Z,1.10
2022-08-16T00:34:56.409Z,1.00
2022-08-16T00:35:56.399Z,1.10
2022-08-16T00:36:56.405Z,1.10
2022-08-16T00:37:59.334Z,1.00
2022-08-16T00:38:56.435Z,1.10
2022-08-16T00:39:58.372Z,1.00
2022-08-16T00:40:56.368Z,1.00
2022-08-16T00:41:56.339Z,1.10
2022-08-16T00:42:56.324Z,1.00
2022-08-16T00:43:56.306Z,1.10
2022-08-16T00:44:56.290Z,1.20
2022-08-16T00:46:00.120Z,1.10
2022-08-16T00:47:06.271Z,1.00
2022-08-16T00:47:57.286Z,1.00
2022-08-16T00:48:56.245Z,1.00
2022-08-16T00:49:56.879Z,1.10
2022-08-16T00:50:56.210Z,1.10
2022-08-16T00:51:56.201Z,1.20
2022-08-16T00:52:56.397Z,1.20
2022-08-16T00:53:56.187Z,1.10
2022-08-16T00:54:56.185Z,1.20
2022-08-16T00:55:56.175Z,1.10
2022-08-16T00:56:59.900Z,1.30
2022-08-16T00:57:59.051Z,1.30
2022-08-16T00:58:56.144Z,1.20
2022-08-16T00:59:59.618Z,1.00
2022-08-16T01:00:57.151Z,1.10
2022-08-16T01:01:56.088Z,1.20
2022-08-16T01:02:56.109Z,1.20
2022-08-16T01:03:56.106Z,1.20
2022-08-16T01:05:11.048Z,1.30
2022-08-16T01:05:57.044Z,1.10
2022-08-16T01:07:01.890Z,1.10
2022-08-16T01:07:57.051Z,1.10
2022-08-16T01:08:56.031Z,1.00
2022-08-16T01:09:56.018Z,1.00
2022-08-16T01:10:55.985Z,1.10
2022-08-16T01:11:55.983Z,1.10
2022-08-16T01:12:55.966Z,1.00
2022-08-16T01:13:55.985Z,1.20
2022-08-16T01:14:55.947Z,1.20
2022-08-16T01:15:55.949Z,1.10
2022-08-16T01:16:55.915Z,1.20
2022-08-16T01:17:56.327Z,1.40
2022-08-16T01:18:55.917Z,1.20
2022-08-16T01:19:57.179Z,1.20
2022-08-16T01:20:55.886Z,1.10
2022-08-16T01:21:55.875Z,1.30
2022-08-16T01:22:56.849Z,1.10
2022-08-16T01:23:58.717Z,1.20
2022-08-16T01:24:56.841Z,1.20
2022-08-16T01:26:00.170Z,1.10
2022-08-16T01:26:56.798Z,1.20
2022-08-16T01:27:56.798Z,1.10
2022-08-16T01:28:55.777Z,1.10
2022-08-16T01:29:58.621Z,1.10
2022-08-16T01:30:55.754Z,1.20
2022-08-16T01:31:55.760Z,1.20
2022-08-16T01:33:01.446Z,1.20
2022-08-16T01:33:56.744Z,1.20
2022-08-16T01:34:56.754Z,1.20
2022-08-16T01:35:56.228Z,1.20
2022-08-16T01:36:58.413Z,1.10
2022-08-16T01:37:55.679Z,1.20
2022-08-16T01:38:57.028Z,1.20
2022-08-16T01:39:55.682Z,1.00
2022-08-16T01:40:55.666Z,1.20
2022-08-16T01:41:55.620Z,1.20
2022-08-16T01:42:55.632Z,1.10
2022-08-16T01:43:55.608Z,1.20
2022-08-16T01:44:56.593Z,1.30
2022-08-16T01:45:57.556Z,1.00
2022-08-16T01:46:55.603Z,1.10
2022-08-16T01:47:55.560Z,1.10
2022-08-16T01:48:55.573Z,1.10
2022-08-16T01:50:42.109Z,1.20
2022-08-16T01:51:08.888Z,1.10
2022-08-16T01:51:56.545Z,1.10
2022-08-16T01:52:55.512Z,1.20
2022-08-16T01:53:55.833Z,1.10
2022-08-16T01:54:55.472Z,1.10
2022-08-16T01:55:55.475Z,1.10
2022-08-16T01:56:55.475Z,1.10
2022-08-16T01:57:56.506Z,1.10
2022-08-16T01:58:55.442Z,1.40
2022-08-16T01:59:55.438Z,1.20
2022-08-16T02:00:55.427Z,1.20
2022-08-16T02:02:00.205Z,1.20
2022-08-16T02:02:56.400Z,1.30
2022-08-16T02:03:58.232Z,1.20
2022-08-16T02:04:56.372Z,1.30
2022-08-16T02:05:55.359Z,1.20
2022-08-16T02:06:55.357Z,1.40
2022-08-16T02:07:55.345Z,1.20
2022-08-16T02:08:55.311Z,1.20
2022-08-16T02:09:56.935Z,1.20
2022-08-16T02:10:55.289Z,1.20
2022-08-16T02:11:55.296Z,1.30
2022-08-16T02:13:00.141Z,1.30
2022-08-16T02:13:56.277Z,1.40
2022-08-16T02:14:55.265Z,1.40
2022-08-16T02:15:55.239Z,1.50
2022-08-16T02:16:55.225Z,1.20
2022-08-16T02:17:55.250Z,1.40
2022-08-16T02:18:55.200Z,1.20
2022-08-16T02:19:59.165Z,1.40
2022-08-16T02:20:56.189Z,1.20
2022-08-16T02:22:08.553Z,1.40
2022-08-16T02:22:56.189Z,1.20
2022-08-16T02:23:55.757Z,1.40
2022-08-16T02:24:55.148Z,1.40
2022-08-16T02:25:55.128Z,1.40
2022-08-16T02:26:55.108Z,1.20
2022-08-16T02:27:55.108Z,1.20
2022-08-16T02:28:55.115Z,1.30
2022-08-16T02:30:04.977Z,1.30
2022-08-16T02:30:56.075Z,1.20
2022-08-16T02:32:03.658Z,1.30
2022-08-16T02:32:56.055Z,1.30
2022-08-16T02:33:55.048Z,1.30
2022-08-16T02:34:56.495Z,1.10
2022-08-16T02:35:58.403Z,1.20
2022-08-16T02:36:55.990Z,1.20
2022-08-16T02:37:56.173Z,1.40
2022-08-16T02:38:54.984Z,1.30
2022-08-16T02:39:54.994Z,1.30
2022-08-16T02:40:55.024Z,1.30
2022-08-16T02:41:54.961Z,1.10
2022-08-16T02:42:54.932Z,1.40
2022-08-16T02:43:54.911Z,1.40
2022-08-16T02:44:54.927Z,1.20
2022-08-16T02:45:54.909Z,1.20
2022-08-16T02:46:54.887Z,1.30
2022-08-16T02:48:01.603Z,1.20
2022-08-16T02:48:55.864Z,1.20
2022-08-16T02:50:28.032Z,1.30
2022-08-16T02:51:06.171Z,1.40
2022-08-16T02:51:55.834Z,1.20
2022-08-16T02:52:54.824Z,1.30
2022-08-16T02:53:54.825Z,1.20
2022-08-16T02:54:55.541Z,1.40
2022-08-16T02:55:54.794Z,1.40
2022-08-16T02:56:54.777Z,1.20
2022-08-16T02:57:54.855Z,1.40
2022-08-16T02:58:54.753Z,1.40
2022-08-16T02:59:54.752Z,1.30
2022-08-16T03:00:56.037Z,1.30
2022-08-16T03:01:55.383Z,1.20
2022-08-16T03:02:56.177Z,1.50
2022-08-16T03:04:30.216Z,1.40
2022-08-16T03:04:55.712Z,1.40
2022-08-16T03:05:54.696Z,1.40
2022-08-16T03:06:56.317Z,1.30
2022-08-16T03:07:54.650Z,1.30
2022-08-16T03:08:54.654Z,1.30
2022-08-16T03:09:54.611Z,1.30
2022-08-16T03:10:54.634Z,1.20
2022-08-16T03:11:54.603Z,1.40
2022-08-16T03:12:55.438Z,1.20
2022-08-16T03:13:56.532Z,1.20
2022-08-16T03:14:54.564Z,1.20
2022-08-16T03:15:54.569Z,1.40
2022-08-16T03:16:59.898Z,1.50
2022-08-16T03:17:55.535Z,1.20
2022-08-16T03:18:54.524Z,1.40
2022-08-16T03:20:02.586Z,1.30
2022-08-16T03:20:56.061Z,1.50
2022-08-16T03:21:54.471Z,1.30
2022-08-16T03:22:54.479Z,1.30
2022-08-16T03:23:54.462Z,1.50
2022-08-16T03:24:54.463Z,1.40
2022-08-16T03:25:54.421Z,1.40
2022-08-16T03:26:58.151Z,1.50
2022-08-16T03:27:54.412Z,1.30
2022-08-16T03:28:54.418Z,1.50
2022-08-16T03:29:55.013Z,1.30
2022-08-16T03:30:55.336Z,1.40
2022-08-16T03:31:54.374Z,1.20
2022-08-16T03:32:54.387Z,1.40
2022-08-16T03:33:54.330Z,1.30
2022-08-16T03:34:54.332Z,1.40
2022-08-16T03:35:57.027Z,1.30
2022-08-16T03:36:54.313Z,1.40
2022-08-16T03:38:02.861Z,1.30
2022-08-16T03:38:55.281Z,1.50
2022-08-16T03:39:56.344Z,1.50
2022-08-16T03:40:54.263Z,1.40
2022-08-16T03:41:59.972Z,1.30
2022-08-16T03:43:00.586Z,1.40
2022-08-16T03:43:55.222Z,1.40
2022-08-16T03:45:03.539Z,1.40
2022-08-16T03:45:55.192Z,1.40
2022-08-16T03:46:54.227Z,1.60
2022-08-16T03:47:58.612Z,1.30
2022-08-16T03:48:55.174Z,1.70
2022-08-16T03:49:54.145Z,1.40
2022-08-16T03:50:59.973Z,1.50
2022-08-16T03:51:55.126Z,1.50
2022-08-16T03:52:59.674Z,1.50
2022-08-16T03:53:57.742Z,1.40
2022-08-16T03:54:58.121Z,1.70
2022-08-16T03:55:54.098Z,1.50
2022-08-16T03:56:57.587Z,1.40
2022-08-16T03:57:54.072Z,1.40
2022-08-16T03:58:54.081Z,1.50
2022-08-16T03:59:54.037Z,1.20
2022-08-16T04:00:56.743Z,1.50
2022-08-16T04:01:55.029Z,1.40
2022-08-16T04:02:53.997Z,1.70
2022-08-16T04:03:55.180Z,1.60
2022-08-16T04:04:53.992Z,1.40
2022-08-16T04:05:54.163Z,1.60
2022-08-16T04:06:53.963Z,1.40
2022-08-16T04:07:53.950Z,1.70
2022-08-16T04:08:53.948Z,1.60
2022-08-16T04:09:53.947Z,1.60
2022-08-16T04:10:53.910Z,1.40
2022-08-16T04:11:53.889Z,1.40
2022-08-16T04:12:59.357Z,1.40
2022-08-16T04:14:01.222Z,1.40
2022-08-16T04:14:54.880Z,1.40
2022-08-16T04:15:53.842Z,1.50
2022-08-16T04:16:53.840Z,1.40
2022-08-16T04:17:53.832Z,1.50
2022-08-16T04:18:53.840Z,1.40
2022-08-16T04:19:58.137Z,1.60
2022-08-16T04:20:53.820Z,1.40
2022-08-16T04:21:56.691Z,1.30
2022-08-16T04:22:53.763Z,1.30
2022-08-16T04:23:54.764Z,1.30
2022-08-16T04:24:54.793Z,1.50
2022-08-16T04:25:53.767Z,1.50
2022-08-16T04:26:53.732Z,1.40
2022-08-16T04:27:55.746Z,1.60
2022-08-16T04:29:14.657Z,1.30
2022-08-16T04:29:54.695Z,1.70
2022-08-16T04:30:54.714Z,1.40
2022-08-16T04:31:56.354Z,1.80
2022-08-16T04:32:53.664Z,1.50
2022-08-16T04:33:53.629Z,1.40
2022-08-16T04:34:53.666Z,1.40
2022-08-16T04:35:53.627Z,1.80
2022-08-16T04:36:53.638Z,1.40
2022-08-16T04:37:53.634Z,1.50
2022-08-16T04:38:53.573Z,1.50
2022-08-16T04:39:57.070Z,1.70
2022-08-16T04:40:54.324Z,1.60
2022-08-16T04:41:57.168Z,1.50
2022-08-16T04:42:53.539Z,1.40
2022-08-16T04:43:53.574Z,1.40
2022-08-16T04:44:55.499Z,1.50
2022-08-16T04:46:00.507Z,1.50
2022-08-16T04:47:02.513Z,1.40
2022-08-16T04:47:56.265Z,1.50
2022-08-16T04:48:53.475Z,1.60
2022-08-16T04:49:53.448Z,1.50
2022-08-16T04:50:53.455Z,1.40
2022-08-16T04:51:53.868Z,1.40
2022-08-16T04:52:53.421Z,1.40
2022-08-16T04:53:53.400Z,1.40
2022-08-16T04:54:53.430Z,1.50
2022-08-16T04:55:53.718Z,1.30
2022-08-16T04:56:53.893Z,1.50
2022-08-16T04:57:53.981Z,1.30
2022-08-16T04:58:53.353Z,1.50
2022-08-16T04:59:54.175Z,1.70
2022-08-16T05:00:53.328Z,1.50
2022-08-16T05:01:57.651Z,1.70
2022-08-16T05:02:55.838Z,1.60
2022-08-16T05:03:59.849Z,1.70
2022-08-16T05:04:54.268Z,1.80
2022-08-16T05:05:59.288Z,1.70
2022-08-16T05:06:54.253Z,2.00
2022-08-16T05:07:58.511Z,1.70
2022-08-16T05:08:56.539Z,1.60
2022-08-16T05:09:53.233Z,1.60
2022-08-16T05:10:53.211Z,1.50
2022-08-16T05:11:57.612Z,1.70
2022-08-16T05:12:53.180Z,1.60
2022-08-16T05:13:53.180Z,1.40
2022-08-16T05:15:02.488Z,1.50
2022-08-16T05:15:54.566Z,1.80
2022-08-16T05:16:53.140Z,1.50
2022-08-16T05:17:58.766Z,1.60
2022-08-16T05:18:54.105Z,1.50
2022-08-16T05:19:57.594Z,1.80
2022-08-16T05:21:01.415Z,1.80
2022-08-16T05:21:54.128Z,1.50
2022-08-16T05:22:53.111Z,1.60
2022-08-16T05:23:58.631Z,1.60
2022-08-16T05:24:55.202Z,1.70
2022-08-16T05:25:53.031Z,1.40
2022-08-16T05:26:53.034Z,1.70
2022-08-16T05:27:53.003Z,1.40
2022-08-16T05:28:55.540Z,1.60
2022-08-16T05:29:59.918Z,1.60
2022-08-16T05:30:53.964Z,1.70
2022-08-16T05:31:53.773Z,1.70
2022-08-16T05:32:53.210Z,1.70
2022-08-16T05:33:53.451Z,1.60
2022-08-16T05:34:52.923Z,1.70
2022-08-16T05:35:54.647Z,1.60
2022-08-16T05:36:52.938Z,1.70
2022-08-16T05:37:52.876Z,1.70
2022-08-16T05:38:52.878Z,1.60
2022-08-16T05:39:55.378Z,1.60
2022-08-16T05:40:59.781Z,1.60
2022-08-16T05:41:53.867Z,1.50
2022-08-16T05:42:53.041Z,1.70
2022-08-16T05:43:58.988Z,1.40
2022-08-16T05:44:53.818Z,1.80
2022-08-16T05:45:52.800Z,1.70
2022-08-16T05:46:52.798Z,1.50
2022-08-16T05:47:59.465Z,1.70
2022-08-16T05:48:55.241Z,1.60
2022-08-16T05:49:53.740Z,1.70
2022-08-16T05:50:52.909Z,1.50
2022-08-16T05:51:52.725Z,1.40
2022-08-16T05:52:52.729Z,1.60
2022-08-16T05:53:52.711Z,1.60
2022-08-16T05:55:00.934Z,1.70
2022-08-16T05:55:53.690Z,1.60
2022-08-16T05:56:52.698Z,1.80
2022-08-16T05:57:52.836Z,1.50
2022-08-16T05:58:52.645Z,1.60
2022-08-16T05:59:59.495Z,1.70
2022-08-16T06:00:53.624Z,1.60
2022-08-16T06:01:52.684Z,1.70
2022-08-16T06:02:52.629Z,1.60
2022-08-16T06:03:52.584Z,1.60
2022-08-16T06:04:52.578Z,1.60
2022-08-16T06:05:52.620Z,1.60
2022-08-16T06:06:56.480Z,1.70
2022-08-16T06:07:58.589Z,1.60
2022-08-16T06:08:53.530Z,1.80
2022-08-16T06:09:52.700Z,1.60
2022-08-16T06:11:03.114Z,1.50
2022-08-16T06:11:53.492Z,1.70
2022-08-16T06:12:55.654Z,1.60
2022-08-16T06:13:52.472Z,1.80
2022-08-16T06:14:52.456Z,1.80
2022-08-16T06:15:52.481Z,1.70
2022-08-16T06:16:52.458Z,1.60
2022-08-16T06:17:52.440Z,1.80
2022-08-16T06:18:52.416Z,1.80
2022-08-16T06:19:52.398Z,1.50
2022-08-16T06:20:55.695Z,1.70
2022-08-16T06:21:55.355Z,1.50
2022-08-16T06:22:58.929Z,1.50
2022-08-16T06:23:54.319Z,1.60
2022-08-16T06:24:54.887Z,1.60
2022-08-16T06:25:53.187Z,1.40
2022-08-16T06:26:57.762Z,1.50
2022-08-16T06:27:57.617Z,1.70
2022-08-16T06:28:52.561Z,1.50
2022-08-16T06:29:52.286Z,1.40
2022-08-16T06:30:52.298Z,1.50
2022-08-16T06:31:52.261Z,1.60
2022-08-16T06:32:52.691Z,1.60
2022-08-16T06:33:52.283Z,1.60
2022-08-16T06:34:57.394Z,1.70
2022-08-16T06:35:54.940Z,1.50
2022-08-16T06:36:59.239Z,1.40
2022-08-16T06:37:53.218Z,1.60
2022-08-16T06:38:56.570Z,1.60
2022-08-16T06:39:52.197Z,1.70
2022-08-16T06:40:52.161Z,1.70
2022-08-16T06:41:52.147Z,1.50
2022-08-16T06:42:57.254Z,1.50
2022-08-16T06:43:53.143Z,1.70
2022-08-16T06:44:52.122Z,1.50
2022-08-16T06:45:52.102Z,1.70
2022-08-16T06:46:52.092Z,1.80
2022-08-16T06:47:53.245Z,1.70
2022-08-16T06:48:52.119Z,1.40
2022-08-16T06:49:53.943Z,1.50
2022-08-16T06:50:52.084Z,1.40
2022-08-16T06:51:52.625Z,1.70
2022-08-16T06:52:57.632Z,1.40
2022-08-16T06:53:53.036Z,1.60
2022-08-16T06:54:51.994Z,1.40
2022-08-16T06:55:53.887Z,1.50
2022-08-16T06:56:52.551Z,1.80
2022-08-16T06:57:51.970Z,1.40
2022-08-16T06:58:51.964Z,1.50
2022-08-16T06:59:53.029Z,1.60
2022-08-16T07:00:52.967Z,1.60
2022-08-16T07:01:54.880Z,1.50
2022-08-16T07:02:52.287Z,1.60
2022-08-16T07:03:55.269Z,1.60
2022-08-16T07:04:52.881Z,1.80
2022-08-16T07:05:51.881Z,1.60
2022-08-16T07:06:51.859Z,1.70
2022-08-16T07:07:51.860Z,1.40
2022-08-16T07:08:51.858Z,1.40
2022-08-16T07:09:51.827Z,1.50
2022-08-16T07:10:51.822Z,1.60
2022-08-16T07:11:52.386Z,1.30
2022-08-16T07:13:04.048Z,1.40
2022-08-16T07:14:00.233Z,1.40
2022-08-16T07:14:52.769Z,1.30
2022-08-16T07:15:51.762Z,1.70
2022-08-16T07:16:51.752Z,1.70
2022-08-16T07:17:51.742Z,1.50
2022-08-16T07:18:59.124Z,1.60
2022-08-16T07:20:03.310Z,1.40
2022-08-16T07:20:52.701Z,1.60
2022-08-16T07:21:59.202Z,1.50
2022-08-16T07:22:59.041Z,1.50
2022-08-16T07:23:57.925Z,1.50
2022-08-16T07:24:52.674Z,1.60
2022-08-16T07:25:51.641Z,1.70
2022-08-16T07:26:51.627Z,1.40
2022-08-16T07:27:51.624Z,1.60
2022-08-16T07:28:51.607Z,1.40
2022-08-16T07:29:51.633Z,1.60
2022-08-16T07:30:51.604Z,1.60
2022-08-16T07:31:53.942Z,1.60
2022-08-16T07:32:52.091Z,1.70
2022-08-16T07:33:54.979Z,1.60
2022-08-16T07:34:51.533Z,1.50
2022-08-16T07:35:51.553Z,1.50
2022-08-16T07:36:57.939Z,1.60
2022-08-16T07:37:52.508Z,1.70
2022-08-16T07:38:51.498Z,1.60
2022-08-16T07:39:51.627Z,1.50
2022-08-16T07:41:00.611Z,1.50
2022-08-16T07:41:52.470Z,1.50
2022-08-16T07:42:51.455Z,1.50
2022-08-16T07:43:51.450Z,1.60
2022-08-16T07:44:51.422Z,1.60
2022-08-16T07:45:53.069Z,1.80
2022-08-16T07:46:55.511Z,1.60
2022-08-16T07:47:52.411Z,1.60
2022-08-16T07:48:51.384Z,1.60
2022-08-16T07:49:53.166Z,1.60
2022-08-16T07:50:57.034Z,1.80
2022-08-16T07:51:55.897Z,1.50
2022-08-16T07:52:51.465Z,1.50
2022-08-16T07:54:02.366Z,1.60
2022-08-16T07:54:53.440Z,1.60
2022-08-16T07:55:51.315Z,1.60
2022-08-16T07:56:51.395Z,1.80
2022-08-16T07:57:59.927Z,1.60
2022-08-16T07:58:55.609Z,1.50
2022-08-16T07:59:52.264Z,1.70
2022-08-16T08:00:51.289Z,1.60
2022-08-16T08:01:53.123Z,1.60
2022-08-16T08:02:52.238Z,1.70
2022-08-16T08:03:51.221Z,1.50
2022-08-16T08:04:51.209Z,1.50
2022-08-16T08:05:51.198Z,1.60
2022-08-16T08:06:51.373Z,1.60
2022-08-16T08:07:51.383Z,1.80
2022-08-16T08:08:52.699Z,1.70
2022-08-16T08:09:52.148Z,1.70
2022-08-16T08:10:51.169Z,1.50
2022-08-16T08:11:59.958Z,1.60
2022-08-16T08:12:52.329Z,1.50
2022-08-16T08:13:51.109Z,1.60
2022-08-16T08:14:51.107Z,1.60
2022-08-16T08:15:53.161Z,1.50
2022-08-16T08:16:51.103Z,1.70
2022-08-16T08:17:51.064Z,1.70
2022-08-16T08:18:56.126Z,1.60
2022-08-16T08:19:53.216Z,1.70
2022-08-16T08:20:59.465Z,1.90
2022-08-16T08:22:00.926Z,1.50
2022-08-16T08:22:52.009Z,1.40
2022-08-16T08:23:50.993Z,1.60
2022-08-16T08:24:50.977Z,1.50
2022-08-16T08:25:54.972Z,1.60
2022-08-16T08:26:50.989Z,1.50
2022-08-16T08:27:50.943Z,1.70
2022-08-16T08:28:51.953Z,1.50
2022-08-16T08:30:50.571Z,1.50
2022-08-16T08:31:01.633Z,1.80
2022-08-16T08:31:51.915Z,1.50
2022-08-16T08:32:59.376Z,1.60
2022-08-16T08:33:51.883Z,1.50
2022-08-16T08:34:50.889Z,1.40
2022-08-16T08:35:50.863Z,1.30
2022-08-16T08:36:54.579Z,1.50
2022-08-16T08:37:54.251Z,1.40
2022-08-16T08:38:51.822Z,1.50
2022-08-16T08:39:55.122Z,1.50
2022-08-16T08:40:50.813Z,1.60
2022-08-16T08:41:51.361Z,1.60
2022-08-16T08:42:50.800Z,1.60
2022-08-16T08:43:51.811Z,1.50
2022-08-16T08:44:50.752Z,1.50
2022-08-16T08:45:53.120Z,1.30
2022-08-16T08:47:00.580Z,1.50
2022-08-16T08:47:54.168Z,1.50
2022-08-16T08:48:59.869Z,1.50
2022-08-16T08:49:55.677Z,1.40
2022-08-16T08:50:50.693Z,1.50
2022-08-16T08:51:50.678Z,1.50
2022-08-16T08:52:50.860Z,1.60
2022-08-16T08:53:57.723Z,1.40
2022-08-16T08:54:51.638Z,1.50
2022-08-16T08:55:58.684Z,1.40
2022-08-16T08:56:51.618Z,1.60
2022-08-16T08:57:50.635Z,1.50
2022-08-16T08:58:53.643Z,1.70
2022-08-16T08:59:51.593Z,1.60
2022-08-16T09:00:51.522Z,1.80
2022-08-16T09:01:57.175Z,1.60
2022-08-16T09:02:51.837Z,1.80
2022-08-16T09:03:50.589Z,1.60
2022-08-16T09:04:50.525Z,1.50
2022-08-16T09:05:51.628Z,1.80
2022-08-16T09:06:50.553Z,1.70
2022-08-16T09:08:00.172Z,1.70
2022-08-16T09:08:51.493Z,1.60
2022-08-16T09:09:50.479Z,1.80
2022-08-16T09:10:58.800Z,1.70
2022-08-16T09:12:04.033Z,1.50
2022-08-16T09:12:51.786Z,1.60
2022-08-16T09:13:50.431Z,1.70
2022-08-16T09:14:51.326Z,2.00
2022-08-16T09:15:50.415Z,1.80
2022-08-16T09:17:01.403Z,1.70
2022-08-16T09:17:53.481Z,1.70
2022-08-16T09:18:54.917Z,1.60
2022-08-16T09:19:54.948Z,1.60
2022-08-16T09:20:59.007Z,1.60
2022-08-16T09:21:56.171Z,1.70
2022-08-16T09:22:52.546Z,1.60
2022-08-16T09:23:50.344Z,1.80
2022-08-16T09:24:52.781Z,1.70
2022-08-16T09:25:50.321Z,1.80
2022-08-16T09:26:52.403Z,1.60
2022-08-16T09:27:57.843Z,1.70
2022-08-16T09:29:16.499Z,1.60
2022-08-16T09:30:00.102Z,1.70
2022-08-16T09:30:51.250Z,1.70
2022-08-16T09:31:53.552Z,1.40
2022-08-16T09:32:50.433Z,1.60
2022-08-16T09:33:52.144Z,1.80
2022-08-16T09:34:50.223Z,1.80
2022-08-16T09:35:53.611Z,1.90
2022-08-16T09:36:50.188Z,1.70
2022-08-16T09:38:00.597Z,1.70
2022-08-16T09:38:51.160Z,1.80
2022-08-16T09:39:51.288Z,1.70
2022-08-16T09:40:50.174Z,1.70
2022-08-16T09:41:53.073Z,1.80
2022-08-16T09:42:56.484Z,1.80
2022-08-16T09:43:59.975Z,1.90
2022-08-16T09:45:12.704Z,1.80
2022-08-16T09:45:51.093Z,1.80
2022-08-16T09:46:50.620Z,1.80
2022-08-16T09:47:56.255Z,1.60
2022-08-16T09:48:51.762Z,1.80
2022-08-16T09:49:51.257Z,1.70
2022-08-16T09:50:50.065Z,1.70
2022-08-16T09:51:50.031Z,1.60
2022-08-16T09:52:50.149Z,1.70
2022-08-16T09:53:53.913Z,1.80
2022-08-16T09:54:50.969Z,1.60
2022-08-16T09:55:50.077Z,1.80
2022-08-16T09:56:53.266Z,1.50
2022-08-16T09:57:52.980Z,1.70
2022-08-16T09:59:04.961Z,1.50
2022-08-16T09:59:56.196Z,1.60
2022-08-16T10:00:50.944Z,1.60
2022-08-16T10:01:50.042Z,1.80
2022-08-16T10:02:49.975Z,1.50
2022-08-16T10:04:02.752Z,1.80
2022-08-16T10:04:54.391Z,1.80
2022-08-16T10:05:49.861Z,1.70
2022-08-16T10:06:49.930Z,1.80
2022-08-16T10:07:50.260Z,1.60
2022-08-16T10:09:04.353Z,1.80
2022-08-16T10:09:55.191Z,1.50
2022-08-16T10:10:50.801Z,1.60
2022-08-16T10:11:49.796Z,1.50
2022-08-16T10:12:56.044Z,1.60
2022-08-16T10:13:50.755Z,1.50
2022-08-16T10:14:49.751Z,1.60
2022-08-16T10:15:55.138Z,1.50
2022-08-16T10:16:50.763Z,1.50
2022-08-16T10:18:00.989Z,1.40
2022-08-16T10:19:00.988Z,1.50
2022-08-16T10:19:50.684Z,1.60
2022-08-16T10:20:49.692Z,1.70
2022-08-16T10:21:56.448Z,1.50
2022-08-16T10:22:57.202Z,1.40
2022-08-16T10:23:50.665Z,1.50
2022-08-16T10:24:55.834Z,1.60
2022-08-16T10:27:16.723Z,1.40
2022-08-16T10:27:16.756Z,1.50
2022-08-16T10:27:53.420Z,1.40
2022-08-16T10:28:50.605Z,1.40
2022-08-16T10:30:00.814Z,1.50
2022-08-16T10:30:56.275Z,1.50
2022-08-16T10:31:53.271Z,1.60
2022-08-16T10:32:49.567Z,1.60
2022-08-16T10:33:49.541Z,1.40
2022-08-16T10:34:51.288Z,1.40
2022-08-16T10:35:49.515Z,1.30
2022-08-16T10:36:54.433Z,1.50
2022-08-16T10:37:52.379Z,1.50
2022-08-16T10:38:49.467Z,1.50
2022-08-16T10:39:49.510Z,1.60
2022-08-16T10:40:50.489Z,1.40
2022-08-16T10:41:49.452Z,1.60
2022-08-16T10:42:50.257Z,1.50
2022-08-16T10:43:50.221Z,1.50
2022-08-16T10:44:53.613Z,1.20
2022-08-16T10:45:57.219Z,1.40
2022-08-16T10:46:50.404Z,1.40
2022-08-16T10:47:49.379Z,1.30
2022-08-16T10:48:50.406Z,1.40
2022-08-16T10:49:49.361Z,1.40
2022-08-16T10:50:49.343Z,1.50
2022-08-16T10:52:02.618Z,1.50
2022-08-16T10:52:50.703Z,1.40
2022-08-16T10:53:50.332Z,1.40
2022-08-16T10:55:57.385Z,1.50
2022-08-16T10:56:55.801Z,1.20
2022-08-16T10:57:50.479Z,1.40
2022-08-16T10:58:49.263Z,1.20
2022-08-16T10:59:53.198Z,1.20
2022-08-16T11:00:53.140Z,1.30
2022-08-16T11:02:59.018Z,1.20
2022-08-16T11:03:56.963Z,1.20
2022-08-16T11:05:07.086Z,1.30
2022-08-16T11:06:06.411Z,1.10
2022-08-16T11:07:52.496Z,1.20
2022-08-16T11:09:20.316Z,1.20
2022-08-16T11:09:50.152Z,1.20
2022-08-16T11:11:06.874Z,1.10
2022-08-16T11:12:52.697Z,1.30
2022-08-16T11:14:10.747Z,1.20
2022-08-16T11:15:55.892Z,1.10
2022-08-16T11:17:09.527Z,1.10
2022-08-16T11:18:48.025Z,1.20
2022-08-16T11:19:05.328Z,1.10
2022-08-16T11:20:50.505Z,1.20
2022-08-16T11:22:49.990Z,1.20
2022-08-16T11:23:57.967Z,1.20
2022-08-16T11:25:11.881Z,1.10
2022-08-16T11:26:07.388Z,1.10
2022-08-16T11:27:18.714Z,1.10
2022-08-16T11:27:50.199Z,1.10
2022-08-16T11:29:49.901Z,1.20
2022-08-16T11:30:54.346Z,1.10
2022-08-16T11:31:54.262Z,1.20
2022-08-16T11:32:48.974Z,1.20
2022-08-16T11:33:52.596Z,1.20
2022-08-16T11:35:13.300Z,1.10
2022-08-16T11:36:53.854Z,1.30
2022-08-16T11:38:05.959Z,1.20
2022-08-16T11:38:55.577Z,1.30
2022-08-16T11:39:49.818Z,1.20
2022-08-16T11:40:52.215Z,1.10
2022-08-16T11:41:51.543Z,1.20
2022-08-16T11:42:48.784Z,1.20
2022-08-16T11:43:48.744Z,1.20
2022-08-16T11:44:56.049Z,1.20
2022-08-16T11:45:53.549Z,1.10
2022-08-16T11:46:48.750Z,1.10
2022-08-16T11:47:48.814Z,1.10
2022-08-16T11:48:48.732Z,1.20
2022-08-16T11:49:48.710Z,1.20
2022-08-16T11:50:48.672Z,1.20
2022-08-16T11:51:48.678Z,1.10
2022-08-16T11:52:48.674Z,1.10
2022-08-16T11:53:48.640Z,1.10
2022-08-16T11:54:56.890Z,1.20
2022-08-16T11:55:50.612Z,1.00
2022-08-16T11:56:53.180Z,1.10
2022-08-16T11:57:49.744Z,1.10
2022-08-16T11:58:51.644Z,1.20
2022-08-16T11:59:49.570Z,1.10
2022-08-16T12:00:51.375Z,1.20
2022-08-16T12:01:59.364Z,1.10
2022-08-16T12:02:49.534Z,1.20
2022-08-16T12:03:48.560Z,1.10
2022-08-16T12:04:51.587Z,1.00
2022-08-16T12:05:51.939Z,1.20
2022-08-16T12:06:48.535Z,0.90
2022-08-16T12:07:48.625Z,1.10
2022-08-16T12:08:48.502Z,1.20
2022-08-16T12:09:48.449Z,1.20
2022-08-16T12:10:48.447Z,1.00
2022-08-16T12:11:53.082Z,1.10
2022-08-16T12:12:48.487Z,1.10
2022-08-16T12:13:48.416Z,1.10
2022-08-16T12:14:48.404Z,1.10
2022-08-16T12:15:48.389Z,1.10
2022-08-16T12:16:48.738Z,1.10
2022-08-16T12:17:49.559Z,1.00
2022-08-16T12:19:48.343Z,1.10
2022-08-16T12:20:48.339Z,1.00
2022-08-16T12:21:58.536Z,1.20
2022-08-16T12:22:49.395Z,1.10
2022-08-16T12:23:48.296Z,1.10
2022-08-16T12:24:52.214Z,1.20
2022-08-16T12:25:48.318Z,1.10
2022-08-16T12:26:48.319Z,1.00
2022-08-16T12:27:49.797Z,1.20
2022-08-16T12:28:56.097Z,1.20
2022-08-16T12:29:49.231Z,1.10
2022-08-16T12:30:48.220Z,1.00
2022-08-16T12:32:26.571Z,1.00
2022-08-16T12:32:51.550Z,1.00
2022-08-16T12:33:48.186Z,1.10
2022-08-16T12:34:52.627Z,1.10
2022-08-16T12:35:49.162Z,1.10
2022-08-16T12:36:48.192Z,1.20
2022-08-16T12:37:48.154Z,1.00
2022-08-16T12:38:48.768Z,1.00
2022-08-16T12:39:51.149Z,1.00
2022-08-16T12:40:48.121Z,0.90
2022-08-16T12:41:48.125Z,1.10
2022-08-16T12:42:52.909Z,1.00
2022-08-16T12:43:49.075Z,1.10
2022-08-16T12:44:48.076Z,1.00
2022-08-16T12:45:48.056Z,1.10
2022-08-16T12:46:48.076Z,1.10
2022-08-16T12:47:48.045Z,1.20
2022-08-16T12:48:48.044Z,1.10
2022-08-16T12:49:48.034Z,1.10
2022-08-16T12:50:49.276Z,1.20
2022-08-16T12:51:59.713Z,1.10
2022-08-16T12:52:53.153Z,1.00
2022-08-16T12:53:47.968Z,1.20
2022-08-16T12:54:54.824Z,1.10
2022-08-16T12:55:48.937Z,1.10
2022-08-16T12:56:47.965Z,1.00
2022-08-16T12:57:58.588Z,1.10
2022-08-16T12:58:51.548Z,1.20
2022-08-16T12:59:47.879Z,1.00
2022-08-16T13:00:47.929Z,1.10
2022-08-16T13:01:47.893Z,1.20
2022-08-16T13:02:48.142Z,1.20
2022-08-16T13:03:47.872Z,1.10
2022-08-16T13:04:47.879Z,1.10
2022-08-16T13:05:55.225Z,1.10
2022-08-16T13:06:48.966Z,1.00
2022-08-16T13:07:51.488Z,1.00
2022-08-16T13:08:47.801Z,1.10
2022-08-16T13:09:47.797Z,1.20
2022-08-16T13:10:47.798Z,1.10
2022-08-16T13:11:48.360Z,1.00
2022-08-16T13:12:48.771Z,1.20
2022-08-16T13:13:47.722Z,1.10
2022-08-16T13:14:50.056Z,1.10
2022-08-16T13:15:51.542Z,1.10
2022-08-16T13:16:48.722Z,1.00
2022-08-16T13:17:47.894Z,1.10
2022-08-16T13:18:52.880Z,1.10
2022-08-16T13:20:07.571Z,1.00
2022-08-16T13:20:48.654Z,0.90
2022-08-16T13:21:47.647Z,0.90
2022-08-16T13:22:47.645Z,1.10
2022-08-16T13:23:47.617Z,1.10
2022-08-16T13:24:47.607Z,1.20
2022-08-16T13:25:47.607Z,1.10
2022-08-16T13:26:47.615Z,1.10
2022-08-16T13:28:02.116Z,1.10